Time;durP1;ratioP1;P1;durP2;ratioP2;P2;SDS_P1;SDS_P2;PMS_P1;PMS_P2;Temp;Humidity;BMP_temperature;BMP_pressure;BME280_temperature;BME280_humidity;BME280_pressure;Samples;Min_cycle;Max_cycle;Signal;HPM_P1;HPM_P2
2023/11/14 00:01:25;;;;;;;0.10;0.10;;;;;;;11.97;75.18;99065.94;7354601;19;20014;-62
2023/11/14 00:03:51;;;;;;;0.05;0.05;;;;;;;12.12;75.50;99093.03;7356341;19;20063;-62
2023/11/14 00:06:16;;;;;;;0.10;0.10;;;;;;;12.13;75.54;99092.94;7355877;19;20014;-62
2023/11/14 00:08:42;;;;;;;0.10;0.10;;;;;;;12.12;75.20;99086.00;7360120;19;20003;-62
2023/11/14 00:11:10;;;;;;;0.10;0.10;;;;;;;12.17;75.63;99091.00;7359483;19;20718;-63
2023/11/14 00:13:35;;;;;;;0.10;0.10;;;;;;;12.09;75.17;99078.31;7346292;19;20021;-62
2023/11/14 00:16:01;;;;;;;0.10;0.10;;;;;;;12.18;75.45;99090.91;7355748;19;20011;-62
2023/11/14 00:18:26;;;;;;;0.10;0.10;;;;;;;12.10;75.35;99080.00;7353253;19;20105;-62
2023/11/14 00:20:54;;;;;;;0.00;0.00;;;;;;;12.20;75.02;99089.03;7360904;19;20028;-62
2023/11/14 00:23:20;;;;;;;0.00;0.00;;;;;;;12.20;75.11;99099.50;7359576;19;20399;-62
2023/11/14 00:25:45;;;;;;;0.10;0.10;;;;;;;12.23;75.35;99100.28;7362683;19;20027;-62
2023/11/14 00:28:11;;;;;;;0.10;0.10;;;;;;;12.23;75.11;99095.06;7359248;19;20345;-62
2023/11/14 00:30:37;;;;;;;0.10;0.10;;;;;;;12.17;75.00;99073.53;7354732;19;20011;-62
2023/11/14 00:33:03;;;;;;;0.05;0.05;;;;;;;12.25;75.18;99090.56;7357865;19;20015;-63
2023/11/14 00:35:28;;;;;;;0.05;0.05;;;;;;;12.27;74.96;99097.41;7363774;19;20955;-63
2023/11/14 00:37:54;;;;;;;0.10;0.10;;;;;;;12.29;75.41;99102.56;7357822;19;20046;-62
2023/11/14 00:40:21;;;;;;;0.10;0.10;;;;;;;12.31;75.25;99100.69;7357906;19;20030;-62
2023/11/14 00:42:48;;;;;;;0.08;0.08;;;;;;;12.32;75.53;99099.78;7360897;19;20011;-62
2023/11/14 00:45:13;;;;;;;0.10;0.10;;;;;;;12.32;75.52;99091.94;7360287;19;20622;-62
2023/11/14 00:47:39;;;;;;;0.10;0.10;;;;;;;12.30;75.52;99088.53;7354872;19;20006;-62
2023/11/14 00:50:05;;;;;;;0.15;0.15;;;;;;;12.27;75.21;99078.25;7359273;19;20014;-62
2023/11/14 00:52:30;;;;;;;0.10;0.10;;;;;;;12.27;75.41;99093.97;7360037;19;20819;-62
2023/11/14 00:54:55;;;;;;;0.10;0.10;;;;;;;12.24;75.66;99092.34;7363534;19;20843;-62
2023/11/14 00:57:21;;;;;;;0.10;0.10;;;;;;;12.18;75.51;99080.44;7356309;19;20011;-62
2023/11/14 00:59:46;;;;;;;0.10;0.10;;;;;;;12.13;75.55;99074.63;7358457;19;20002;-63
2023/11/14 01:02:12;;;;;;;0.10;0.10;;;;;;;12.10;75.50;99077.38;7356566;19;20014;-62
2023/11/14 01:04:38;;;;;;;0.10;0.10;;;;;;;12.14;75.58;99078.91;7361017;19;20010;-63
2023/11/14 01:07:05;;;;;;;0.10;0.10;;;;;;;12.05;75.44;99078.56;7357647;19;20014;-61
2023/11/14 01:09:31;;;;;;;0.10;0.10;;;;;;;12.10;75.93;99082.63;7372047;19;20412;-62
2023/11/14 01:11:56;;;;;;;0.10;0.10;;;;;;;12.06;75.74;99085.47;7359425;19;21175;-62
2023/11/14 01:14:21;;;;;;;0.00;0.00;;;;;;;12.04;75.80;99082.97;7368756;19;20015;-62
2023/11/14 01:16:47;;;;;;;0.10;0.10;;;;;;;12.01;75.86;99075.25;7355427;19;20003;-61
2023/11/14 01:19:12;;;;;;;0.03;0.03;;;;;;;11.84;75.36;99070.13;7361607;19;20010;-62
2023/11/14 01:21:38;;;;;;;0.10;0.10;;;;;;;12.02;75.64;99097.91;7354230;19;20006;-62
2023/11/14 01:24:03;;;;;;;0.00;0.00;;;;;;;11.98;75.63;99082.47;7346039;19;20820;-63
2023/11/14 01:26:35;;;;;;;0.10;0.10;;;;;;;11.95;75.94;99075.59;7359010;19;20034;-62
2023/11/14 01:29:01;;;;;;;0.10;0.10;;;;;;;12.02;75.73;99092.69;7363226;19;20424;-62
2023/11/14 01:31:28;;;;;;;0.10;0.10;;;;;;;12.02;76.09;99100.53;7356536;19;20015;-62
2023/11/14 01:33:53;;;;;;;0.00;0.00;;;;;;;12.03;76.08;99096.97;7366770;19;20036;-62
2023/11/14 01:36:19;;;;;;;0.10;0.10;;;;;;;12.05;76.13;99102.13;7353559;19;20016;-62
2023/11/14 01:38:44;;;;;;;0.10;0.10;;;;;;;12.05;76.06;99094.25;7357645;19;20373;-60
2023/11/14 01:41:10;;;;;;;0.10;0.10;;;;;;;12.05;75.69;99089.88;7356440;19;20035;-61
2023/11/14 01:43:46;;;;;;;0.10;0.10;;;;;;;12.06;75.64;99075.03;7361199;19;20015;-62
2023/11/14 01:46:17;;;;;;;0.10;0.10;;;;;;;12.10;75.76;99077.38;7348165;19;22520;-62
2023/11/14 01:48:52;;;;;;;0.10;0.10;;;;;;;12.14;75.70;99072.84;7351674;19;20626;-62
2023/11/14 01:51:19;;;;;;;0.05;0.05;;;;;;;12.06;75.91;99068.00;7359710;19;20047;-62
2023/11/14 01:53:48;;;;;;;0.00;0.00;;;;;;;12.12;76.26;99080.78;7342849;19;20010;-63
2023/11/14 01:56:13;;;;;;;0.10;0.10;;;;;;;11.99;76.07;99047.50;7359963;19;20346;-62
2023/11/14 01:58:38;;;;;;;0.10;0.10;;;;;;;12.15;75.94;99070.13;7355585;19;20074;-63
2023/11/14 02:01:04;;;;;;;0.10;0.10;;;;;;;12.15;75.71;99077.97;7360084;19;20730;-62
2023/11/14 02:03:30;;;;;;;0.10;0.10;;;;;;;12.18;75.64;99067.34;7358348;19;20027;-62
2023/11/14 02:05:56;;;;;;;0.10;0.10;;;;;;;12.18;76.19;99069.97;7353765;19;20010;-62
2023/11/14 02:08:21;;;;;;;0.10;0.10;;;;;;;12.20;75.80;99072.50;7357473;19;20014;-62
2023/11/14 02:10:46;;;;;;;0.10;0.10;;;;;;;12.20;75.85;99062.88;7357552;19;20116;-62
2023/11/14 02:13:12;;;;;;;0.10;0.10;;;;;;;12.23;75.80;99063.66;7355623;19;20466;-62
2023/11/14 02:15:39;;;;;;;0.10;0.10;;;;;;;12.23;75.45;99056.63;7355658;19;20011;-61
2023/11/14 02:18:04;;;;;;;0.10;0.10;;;;;;;12.23;75.71;99059.25;7351693;19;20017;-62
2023/11/14 02:20:29;;;;;;;0.10;0.10;;;;;;;12.20;75.41;99062.03;7358439;19;20003;-62
2023/11/14 02:22:56;;;;;;;0.10;0.10;;;;;;;12.23;75.32;99076.72;7353997;19;20017;-62
2023/11/14 02:25:22;;;;;;;0.10;0.10;;;;;;;12.19;75.16;99060.34;7357326;19;20022;-62
2023/11/14 02:27:47;;;;;;;0.10;0.10;;;;;;;12.23;75.64;99071.50;7359228;19;20018;-62
2023/11/14 02:30:13;;;;;;;0.10;0.10;;;;;;;12.25;75.20;99080.09;7345676;19;20117;-62
2023/11/14 02:32:38;;;;;;;0.10;0.10;;;;;;;12.07;75.29;99047.94;7360235;19;20013;-63
2023/11/14 02:35:04;;;;;;;0.10;0.10;;;;;;;12.23;75.25;99079.34;7355449;19;20027;-62
2023/11/14 02:37:30;;;;;;;0.10;0.10;;;;;;;12.06;75.46;99048.84;7354404;19;20007;-62
2023/11/14 02:39:56;;;;;;;0.10;0.10;;;;;;;12.18;75.26;99069.13;7353165;19;20015;-62
2023/11/14 02:42:22;;;;;;;0.00;0.00;;;;;;;12.11;75.53;99076.44;7350583;19;20497;-62
2023/11/14 02:44:47;;;;;;;0.10;0.10;;;;;;;12.16;75.88;99087.50;7355185;19;20025;-62
2023/11/14 02:47:13;;;;;;;0.10;0.10;;;;;;;12.18;75.60;99095.31;7361460;19;20785;-62
2023/11/14 02:49:45;;;;;;;0.10;0.10;;;;;;;12.17;75.46;99085.75;7354219;19;20693;-62
2023/11/14 02:52:10;;;;;;;0.10;0.10;;;;;;;12.17;75.71;99084.00;7358195;19;20002;-61
2023/11/14 02:54:36;;;;;;;0.10;0.10;;;;;;;12.17;75.53;99089.22;7361884;19;20020;-62
2023/11/14 02:57:01;;;;;;;0.00;0.00;;;;;;;12.06;75.68;99069.78;7357839;19;20007;-62
2023/11/14 02:59:27;;;;;;;0.10;0.10;;;;;;;12.18;75.40;99096.13;7358742;19;20561;-63
2023/11/14 03:01:52;;;;;;;0.10;0.10;;;;;;;12.17;75.76;99089.22;7361972;19;20098;-62
2023/11/14 03:04:17;;;;;;;0.05;0.05;;;;;;;11.99;75.81;99058.81;7359823;19;20042;-62
2023/11/14 03:06:43;;;;;;;0.10;0.10;;;;;;;12.19;75.61;99092.59;7360352;19;20011;-63
2023/11/14 03:09:08;;;;;;;0.10;0.10;;;;;;;12.19;75.69;99086.50;7358474;19;20013;-62
2023/11/14 03:11:33;;;;;;;0.00;0.00;;;;;;;12.23;75.54;99092.44;7368650;19;20027;-62
2023/11/14 03:14:00;;;;;;;0.10;0.10;;;;;;;12.20;75.52;99089.03;7367230;19;20010;-62
2023/11/14 03:16:26;;;;;;;0.10;0.10;;;;;;;12.22;75.74;99085.50;7367198;19;20002;-62
2023/11/14 03:18:51;;;;;;;0.03;0.03;;;;;;;12.18;75.21;99080.44;7361929;19;20328;-62
2023/11/14 03:21:17;;;;;;;0.10;0.10;;;;;;;12.21;75.42;99079.41;7361472;19;20392;-61
2023/11/14 03:23:43;;;;;;;0.10;0.10;;;;;;;12.18;75.51;99085.66;7366458;19;20003;-62
2023/11/14 03:26:08;;;;;;;0.00;0.00;;;;;;;12.08;75.66;99070.56;7374442;19;20015;-62
2023/11/14 03:28:34;;;;;;;0.08;0.08;;;;;;;12.06;75.69;99072.41;7365944;19;20010;-62
2023/11/14 03:30:59;;;;;;;0.10;0.10;;;;;;;12.14;75.54;99078.06;7370497;19;20114;-62
2023/11/14 03:33:25;;;;;;;0.00;0.00;;;;;;;12.12;75.66;99070.31;7370173;19;20011;-62
2023/11/14 03:35:50;;;;;;;0.10;0.10;;;;;;;11.95;75.53;99049.44;7365468;19;20017;-62
2023/11/14 03:38:16;;;;;;;0.10;0.10;;;;;;;11.98;75.28;99051.91;7364734;19;20018;-62
2023/11/14 03:40:42;;;;;;;0.05;0.05;;;;;;;12.10;75.06;99069.53;7363673;19;20003;-62
2023/11/14 03:43:08;;;;;;;0.10;0.10;;;;;;;12.07;75.02;99068.88;7364263;19;20014;-62
2023/11/14 03:45:33;;;;;;;0.10;0.10;;;;;;;12.05;75.19;99068.94;7368682;19;20007;-63
2023/11/14 03:47:59;;;;;;;0.10;0.10;;;;;;;12.07;75.44;99072.34;7367121;19;20015;-62
2023/11/14 03:50:24;;;;;;;0.10;0.10;;;;;;;12.06;75.56;99080.25;7366256;19;20040;-62
2023/11/14 03:52:49;;;;;;;0.10;0.10;;;;;;;12.06;75.29;99078.47;7369039;19;20014;-62
2023/11/14 03:55:15;;;;;;;0.10;0.10;;;;;;;11.87;75.47;99046.44;7358186;19;20030;-62
2023/11/14 03:57:40;;;;;;;0.10;0.10;;;;;;;11.97;75.51;99068.53;7360723;19;20015;-62
2023/11/14 04:00:09;;;;;;;0.10;0.10;;;;;;;11.94;75.58;99056.47;7368787;19;20516;-61
2023/11/14 04:02:38;;;;;;;0.10;0.10;;;;;;;12.03;75.64;99075.22;7362774;19;20725;-62
2023/11/14 04:05:04;;;;;;;0.10;0.10;;;;;;;12.02;75.28;99074.38;7366401;19;20018;-62
2023/11/14 04:07:30;;;;;;;0.10;0.10;;;;;;;11.99;75.31;99077.13;7365883;19;20670;-62
2023/11/14 04:09:55;;;;;;;0.10;0.10;;;;;;;12.01;75.38;99070.03;7368978;19;20010;-62
2023/11/14 04:12:21;;;;;;;0.10;0.10;;;;;;;11.96;75.23;99072.06;7360944;19;20007;-62
2023/11/14 04:14:47;;;;;;;0.10;0.10;;;;;;;12.01;75.70;99080.50;7368424;19;20013;-62
2023/11/14 04:17:13;;;;;;;0.10;0.10;;;;;;;12.01;75.79;99077.88;7342756;19;20039;-62
2023/11/14 04:19:38;;;;;;;0.10;0.10;;;;;;;11.96;75.52;99074.69;7330374;19;20002;-62
2023/11/14 04:22:03;;;;;;;0.10;0.10;;;;;;;11.86;75.15;99068.25;7363832;19;20011;-62
2023/11/14 04:24:31;;;;;;;0.00;0.00;;;;;;;11.99;75.40;99079.75;7364424;19;20039;-64
2023/11/14 04:26:58;;;;;;;0.10;0.10;;;;;;;11.97;75.34;99076.38;7370705;19;20553;-62
2023/11/14 04:29:24;;;;;;;0.10;0.10;;;;;;;11.96;75.49;99074.69;7349634;19;20014;-62
2023/11/14 04:31:49;;;;;;;0.10;0.10;;;;;;;11.97;75.59;99079.00;7368987;19;20035;-61
2023/11/14 04:34:15;;;;;;;0.10;0.10;;;;;;;11.90;75.18;99069.78;7366524;19;20029;-62
2023/11/14 04:36:41;;;;;;;0.10;0.10;;;;;;;11.91;75.35;99071.47;7367098;19;20427;-63
2023/11/14 04:39:06;;;;;;;0.10;0.10;;;;;;;11.83;75.27;99061.44;7358138;19;20013;-62
2023/11/14 04:41:32;;;;;;;0.10;0.10;;;;;;;11.83;75.33;99069.28;7363740;19;20486;-62
2023/11/14 04:43:57;;;;;;;0.10;0.10;;;;;;;11.89;75.52;99070.72;7365633;19;20025;-62
2023/11/14 04:46:23;;;;;;;0.10;0.10;;;;;;;11.91;75.30;99087.16;7368144;19;20007;-62
2023/11/14 04:48:49;;;;;;;0.10;0.10;;;;;;;11.65;75.20;99039.69;7361161;19;20043;-62
2023/11/14 04:51:14;;;;;;;0.10;0.10;;;;;;;11.88;75.71;99084.72;7365583;19;20592;-61
2023/11/14 04:53:40;;;;;;;0.00;0.00;;;;;;;11.73;75.07;99067.22;7367640;19;20051;-62
2023/11/14 04:56:05;;;;;;;0.10;0.10;;;;;;;11.84;75.62;99084.03;7365303;19;20013;-62
2023/11/14 04:58:31;;;;;;;0.00;0.00;;;;;;;11.79;75.43;99082.56;7360560;19;20097;-62
2023/11/14 05:00:56;;;;;;;0.00;0.00;;;;;;;11.81;75.79;99088.53;7373511;19;20073;-63
2023/11/14 05:03:22;;;;;;;0.00;0.00;;;;;;;11.80;75.84;99094.72;7362404;19;20022;-62
2023/11/14 05:05:47;;;;;;;0.00;0.00;;;;;;;11.79;75.53;99087.78;7368083;19;20006;-62
2023/11/14 05:08:12;;;;;;;0.10;0.10;;;;;;;11.73;75.59;99077.66;7359230;19;20082;-63
2023/11/14 05:10:38;;;;;;;0.05;0.05;;;;;;;11.79;75.70;99088.63;7366418;19;20529;-63
2023/11/14 05:13:03;;;;;;;0.10;0.10;;;;;;;11.79;76.10;99093.03;7365550;19;20006;-62
2023/11/14 05:15:29;;;;;;;0.15;0.15;;;;;;;11.46;75.66;99044.22;7364830;19;20022;-62
2023/11/14 05:17:56;;;;;;;0.03;0.03;;;;;;;11.78;75.66;99107.88;7362005;19;20034;-63
2023/11/14 05:20:22;;;;;;;0.10;0.10;;;;;;;11.75;75.68;99096.72;7357907;19;20007;-62
2023/11/14 05:22:48;;;;;;;0.10;0.10;;;;;;;11.77;75.85;99106.19;7366163;19;20022;-62
2023/11/14 05:25:13;;;;;;;0.10;0.10;;;;;;;11.76;76.17;99104.50;7362916;19;20011;-63
2023/11/14 05:27:39;;;;;;;0.10;0.10;;;;;;;11.78;76.37;99107.03;7370742;19;20097;-62
2023/11/14 05:30:09;;;;;;;0.10;0.10;;;;;;;11.79;76.29;99099.09;7355974;19;20006;-62
2023/11/14 05:32:38;;;;;;;0.10;0.10;;;;;;;11.83;76.00;99105.06;7367987;19;20458;-62
2023/11/14 05:35:04;;;;;;;0.10;0.10;;;;;;;11.83;75.97;99102.44;7365056;19;20497;-62
2023/11/14 05:37:29;;;;;;;0.10;0.10;;;;;;;11.83;75.79;99095.44;7367605;19;20014;-63
2023/11/14 05:39:55;;;;;;;0.10;0.10;;;;;;;11.87;75.85;99098.75;7351590;19;20079;-62
2023/11/14 05:42:21;;;;;;;0.00;0.00;;;;;;;11.80;75.96;99089.47;7365910;19;20502;-63
2023/11/14 05:44:47;;;;;;;0.10;0.10;;;;;;;11.87;76.23;99099.56;7363714;19;20027;-63
2023/11/14 05:47:14;;;;;;;0.10;0.10;;;;;;;11.86;75.57;99094.41;7364545;19;20383;-63
2023/11/14 05:49:40;;;;;;;0.10;0.10;;;;;;;11.88;75.87;99101.25;7360682;19;20021;-62
2023/11/14 05:52:06;;;;;;;0.10;0.10;;;;;;;11.73;75.73;99082.91;7346399;19;20011;-62
2023/11/14 05:54:31;;;;;;;0.10;0.10;;;;;;;11.65;75.68;99064.97;7364990;19;20014;-62
2023/11/14 05:56:58;;;;;;;0.00;0.00;;;;;;;11.85;75.25;99103.19;7366797;19;20002;-63
2023/11/14 05:59:24;;;;;;;0.10;0.10;;;;;;;11.81;75.75;99097.25;7366868;19;20006;-62
2023/11/14 06:01:49;;;;;;;0.10;0.10;;;;;;;11.72;75.76;99086.44;7363655;19;20434;-62
2023/11/14 06:04:15;;;;;;;0.05;0.05;;;;;;;11.81;75.71;99093.78;7362466;19;20010;-62
2023/11/14 06:06:40;;;;;;;0.10;0.10;;;;;;;11.67;75.49;99082.28;7362075;19;20122;-62
2023/11/14 06:09:06;;;;;;;0.10;0.10;;;;;;;11.77;75.79;99100.13;7365116;19;20015;-62
2023/11/14 06:11:31;;;;;;;0.10;0.10;;;;;;;11.73;75.65;99101.19;7363677;19;20106;-62
2023/11/14 06:13:56;;;;;;;0.00;0.00;;;;;;;11.67;75.59;99095.38;7376212;19;20422;-62
2023/11/14 06:16:22;;;;;;;0.10;0.10;;;;;;;11.65;75.65;99097.19;7345182;19;20106;-62
2023/11/14 06:18:47;;;;;;;0.10;0.10;;;;;;;11.65;75.90;99107.66;7363998;19;20006;-62
2023/11/14 06:21:13;;;;;;;0.10;0.10;;;;;;;11.51;75.34;99078.81;7360276;19;20017;-63
2023/11/14 06:23:39;;;;;;;0.10;0.10;;;;;;;11.64;75.37;99105.13;7358626;19;20790;-63
2023/11/14 06:26:04;;;;;;;0.00;0.00;;;;;;;11.54;75.92;99094.31;7369802;19;20074;-61
2023/11/14 06:28:30;;;;;;;0.10;0.10;;;;;;;11.35;75.80;99073.53;7367618;19;20017;-62
2023/11/14 06:30:56;;;;;;;0.00;0.00;;;;;;;11.59;75.85;99112.38;7362261;19;20386;-63
2023/11/14 06:33:21;;;;;;;0.08;0.08;;;;;;;11.61;75.81;99115.78;7362142;19;20019;-61
2023/11/14 06:35:47;;;;;;;0.10;0.10;;;;;;;11.60;76.04;99114.91;7365992;19;20014;-63
2023/11/14 06:38:13;;;;;;;0.10;0.10;;;;;;;11.61;75.79;99110.53;7359602;19;20014;-62
2023/11/14 06:40:39;;;;;;;0.00;0.00;;;;;;;11.60;75.81;99114.91;7362013;19;20071;-62
2023/11/14 06:43:06;;;;;;;0.00;0.00;;;;;;;11.56;76.02;99108.16;7356638;19;20010;-62
2023/11/14 06:45:32;;;;;;;0.10;0.10;;;;;;;11.64;75.92;99116.44;7364034;19;20042;-63
2023/11/14 06:47:57;;;;;;;0.10;0.10;;;;;;;11.53;75.66;99090.03;7364933;19;19999;-62
2023/11/14 06:50:22;;;;;;;0.10;0.10;;;;;;;11.68;75.97;99112.75;7365925;19;20030;-63
2023/11/14 06:52:48;;;;;;;0.05;0.05;;;;;;;11.68;75.33;99115.34;7360429;19;20010;-62
2023/11/14 06:55:13;;;;;;;0.10;0.10;;;;;;;11.69;75.76;99117.03;7360042;19;20002;-62
2023/11/14 06:57:40;;;;;;;0.10;0.10;;;;;;;11.70;75.40;99110.03;7361325;19;20090;-62
2023/11/14 07:00:07;;;;;;;0.10;0.10;;;;;;;11.71;75.60;99111.75;7369837;19;20509;-63
2023/11/14 07:02:33;;;;;;;0.10;0.10;;;;;;;11.69;75.80;99114.44;7367000;19;19995;-62
2023/11/14 07:04:59;;;;;;;0.10;0.10;;;;;;;11.70;75.80;99116.09;7370210;19;20015;-62
2023/11/14 07:07:24;;;;;;;0.10;0.10;;;;;;;11.72;75.91;99123.91;7370950;19;19995;-63
2023/11/14 07:09:49;;;;;;;0.10;0.10;;;;;;;11.59;75.27;99096.69;7368202;19;20006;-62
2023/11/14 07:12:16;;;;;;;0.10;0.10;;;;;;;11.57;75.54;99096.78;7366043;19;20038;-63
2023/11/14 07:14:41;;;;;;;0.10;0.10;;;;;;;11.78;75.68;99127.97;7370123;19;20010;-62
2023/11/14 07:17:07;;;;;;;0.00;0.00;;;;;;;11.74;75.42;99131.66;7367807;19;20013;-62
2023/11/14 07:19:34;;;;;;;0.10;0.10;;;;;;;11.80;75.72;99137.41;7371127;19;20002;-63
2023/11/14 07:21:59;;;;;;;0.10;0.10;;;;;;;11.75;75.48;99126.34;7367373;19;20041;-62
2023/11/14 07:24:27;;;;;;;0.05;0.05;;;;;;;11.74;75.43;99119.41;7369594;19;20010;-62
2023/11/14 07:26:53;;;;;;;0.10;0.10;;;;;;;11.78;75.44;99127.97;7368093;19;20018;-62
2023/11/14 07:29:19;;;;;;;0.05;0.05;;;;;;;11.72;75.58;99123.06;7369812;19;20006;-63
2023/11/14 07:31:45;;;;;;;0.10;0.10;;;;;;;11.67;75.74;99124.13;7366327;19;20077;-62
2023/11/14 07:34:11;;;;;;;0.10;0.10;;;;;;;11.76;75.63;99135.03;7370513;19;20033;-62
2023/11/14 07:36:37;;;;;;;0.00;0.00;;;;;;;11.69;75.52;99137.97;7359688;19;20382;-62
2023/11/14 07:39:02;;;;;;;0.03;0.03;;;;;;;11.74;75.22;99136.88;7362715;19;20431;-63
2023/11/14 07:41:28;;;;;;;0.10;0.10;;;;;;;11.61;75.52;99121.84;7366041;19;20110;-63
2023/11/14 07:43:54;;;;;;;0.10;0.10;;;;;;;11.72;75.14;99149.22;7367159;19;20690;-62
2023/11/14 07:46:21;;;;;;;0.10;0.10;;;;;;;11.70;75.47;99139.66;7362093;19;20021;-62
2023/11/14 07:48:46;;;;;;;0.10;0.10;;;;;;;11.63;75.47;99140.91;7363750;19;20010;-63
2023/11/14 07:51:12;;;;;;;0.00;0.00;;;;;;;11.70;75.53;99152.72;7369273;19;19999;-63
2023/11/14 07:53:37;;;;;;;0.00;0.00;;;;;;;11.65;75.78;99152.13;7359965;19;20010;-62
2023/11/14 07:56:03;;;;;;;0.10;0.10;;;;;;;11.63;75.20;99156.59;7371663;19;20048;-62
2023/11/14 07:58:29;;;;;;;0.10;0.10;;;;;;;11.67;75.49;99163.34;7340271;19;20760;-62
2023/11/14 08:00:56;;;;;;;0.10;0.10;;;;;;;11.68;75.82;99165.03;7360833;19;20018;-62
2023/11/14 08:03:23;;;;;;;0.10;0.10;;;;;;;11.62;75.26;99159.28;7363260;19;20014;-62
2023/11/14 08:05:48;;;;;;;0.00;0.00;;;;;;;11.61;75.59;99158.44;7367134;19;20002;-62
2023/11/14 08:08:14;;;;;;;0.03;0.03;;;;;;;11.52;75.21;99153.69;7363814;19;20018;-62
2023/11/14 08:10:39;;;;;;;0.10;0.10;;;;;;;11.67;75.58;99186.88;7353266;19;20618;-63
2023/11/14 08:13:06;;;;;;;0.10;0.10;;;;;;;11.66;75.88;99177.38;7369373;19;20019;-62
2023/11/14 08:15:31;;;;;;;0.00;0.00;;;;;;;11.45;75.52;99147.06;7361040;19;20009;-63
2023/11/14 08:17:57;;;;;;;0.10;0.10;;;;;;;11.63;75.81;99187.13;7361599;19;20014;-62
2023/11/14 08:20:22;;;;;;;0.10;0.10;;;;;;;11.53;75.82;99173.66;7365901;19;20552;-62
2023/11/14 08:22:51;;;;;;;0.03;0.03;;;;;;;11.64;75.80;99192.25;7367479;19;20007;-62
2023/11/14 08:25:20;;;;;;;0.10;0.10;;;;;;;11.51;75.58;99178.16;7339832;19;19998;-63
2023/11/14 08:27:46;;;;;;;0.10;0.10;;;;;;;11.60;75.58;99195.94;7368817;19;20010;-62
2023/11/14 08:30:12;;;;;;;0.10;0.10;;;;;;;11.59;75.52;99204.72;7365952;19;20006;-62
2023/11/14 08:32:39;;;;;;;0.10;0.10;;;;;;;11.60;75.61;99195.09;7365414;19;20031;-63
2023/11/14 08:35:06;;;;;;;0.10;0.10;;;;;;;11.55;75.74;99187.50;7361956;19;20019;-62
2023/11/14 08:37:31;;;;;;;0.00;0.00;;;;;;;11.59;75.78;99212.56;7366293;19;20038;-62
2023/11/14 08:39:57;;;;;;;0.03;0.03;;;;;;;11.60;75.98;99213.41;7361915;19;20014;-62
2023/11/14 08:42:22;;;;;;;0.00;0.00;;;;;;;11.56;75.55;99206.66;7366116;19;20010;-63
2023/11/14 08:44:48;;;;;;;0.00;0.00;;;;;;;11.59;75.87;99215.19;7365346;19;20757;-62
2023/11/14 08:47:14;;;;;;;0.10;0.10;;;;;;;11.48;75.75;99211.44;7365041;19;20484;-63
2023/11/14 08:49:40;;;;;;;0.00;0.00;;;;;;;11.60;75.94;99223.88;7361147;19;20123;-63
2023/11/14 08:52:06;;;;;;;0.10;0.10;;;;;;;11.61;75.90;99233.44;7362863;19;20023;-63
2023/11/14 08:54:32;;;;;;;0.10;0.10;;;;;;;11.59;76.33;99228.25;7363866;19;20505;-62
2023/11/14 08:56:57;;;;;;;0.10;0.10;;;;;;;11.60;76.05;99235.16;7365698;19;21174;-63
2023/11/14 08:59:23;;;;;;;0.10;0.10;;;;;;;11.76;76.28;99239.63;7364278;19;20003;-62
2023/11/14 09:01:48;;;;;;;0.00;0.00;;;;;;;11.65;76.42;99201.78;7334049;19;20015;-62
2023/11/14 09:04:14;;;;;;;0.10;0.10;;;;;;;11.98;76.45;99235.03;7364113;19;20033;-62
2023/11/14 09:06:40;;;;;;;0.10;0.10;;;;;;;12.11;76.29;99232.59;7365098;19;20441;-62
2023/11/14 09:09:07;;;;;;;0.00;0.00;;;;;;;12.16;76.12;99227.97;7361739;19;20039;-63
2023/11/14 09:11:33;;;;;;;0.08;0.08;;;;;;;12.36;76.26;99224.31;7350606;19;20620;-62
2023/11/14 09:13:59;;;;;;;0.10;0.10;;;;;;;12.31;76.12;99215.84;7367898;19;20027;-63
2023/11/14 09:16:25;;;;;;;0.10;0.10;;;;;;;12.51;75.82;99213.00;7361090;19;20010;-62
2023/11/14 09:18:51;;;;;;;0.10;0.10;;;;;;;12.77;75.46;99239.53;7367097;19;20113;-63
2023/11/14 09:21:17;;;;;;;0.08;0.08;;;;;;;12.89;75.56;99252.81;7358761;19;20405;-62
2023/11/14 09:23:43;;;;;;;0.10;0.10;;;;;;;12.99;75.03;99250.53;7367946;19;20352;-62
2023/11/14 09:26:09;;;;;;;0.10;0.10;;;;;;;13.08;75.15;99250.03;7363339;19;20588;-62
2023/11/14 09:28:36;;;;;;;0.08;0.08;;;;;;;13.05;74.79;99244.09;7361343;19;20171;-63
2023/11/14 09:31:04;;;;;;;0.10;0.10;;;;;;;13.10;74.24;99253.41;7364630;19;20018;-63
2023/11/14 09:33:32;;;;;;;0.10;0.10;;;;;;;13.02;74.03;99239.88;7362195;19;20014;-63
2023/11/14 09:35:57;;;;;;;;;;;;;;;13.13;74.84;99262.88;7363129;19;20592;-62
2023/11/14 09:38:22;;;;;;;0.10;0.10;;;;;;;13.04;74.32;99264.22;7365099;19;19911;-62
2023/11/14 09:40:48;;;;;;;0.10;0.10;;;;;;;13.04;74.41;99268.63;7357081;19;20513;-62
2023/11/14 09:43:14;;;;;;;0.10;0.10;;;;;;;13.05;74.64;99271.16;7361696;19;20025;-62
2023/11/14 09:45:43;;;;;;;0.10;0.10;;;;;;;13.04;74.62;99250.28;7364361;19;20006;-63
2023/11/14 09:48:10;;;;;;;0.10;0.10;;;;;;;13.27;74.76;99277.84;7361391;19;20014;-62
2023/11/14 09:50:39;;;;;;;0.10;0.10;;;;;;;13.36;75.30;99274.69;7364619;19;20002;-62
2023/11/14 09:53:06;;;;;;;0.10;0.10;;;;;;;13.59;74.60;99282.13;7364978;19;20018;-62
2023/11/14 09:55:33;;;;;;;0.10;0.10;;;;;;;13.72;73.89;99277.81;7363885;19;20007;-62
2023/11/14 09:58:02;;;;;;;0.20;0.20;;;;;;;13.83;74.72;99274.56;7355381;19;20086;-62
2023/11/14 10:00:30;;;;;;;0.10;0.10;;;;;;;14.08;73.61;99289.72;7365749;19;20006;-62
2023/11/14 10:02:58;;;;;;;0.10;0.10;;;;;;;14.23;73.56;99293.19;7374669;19;20022;-63
2023/11/14 10:05:24;;;;;;;0.10;0.10;;;;;;;14.36;72.85;99293.31;7362085;19;20011;-62
2023/11/14 10:07:50;;;;;;;0.10;0.10;;;;;;;14.46;73.25;99292.66;7360938;19;20027;-62
2023/11/14 10:10:16;;;;;;;0.10;0.10;;;;;;;14.66;71.92;99303.78;7358490;19;20022;-62
2023/11/14 10:12:42;;;;;;;0.10;0.10;;;;;;;14.77;71.80;99310.03;7361374;19;20011;-62
2023/11/14 10:15:08;;;;;;;0.10;0.10;;;;;;;14.88;71.71;99311.16;7364675;19;20387;-62
2023/11/14 10:17:41;;;;;;;0.10;0.10;;;;;;;15.02;72.59;99314.59;7363127;19;20010;-63
2023/11/14 10:20:07;;;;;;;0.10;0.10;;;;;;;15.00;71.26;99310.38;7357178;19;20327;-62
2023/11/14 10:22:34;;;;;;;0.10;0.10;;;;;;;14.95;70.63;99301.94;7364945;19;20023;-62
2023/11/14 10:25:00;;;;;;;0.10;0.10;;;;;;;15.11;70.85;99321.06;7359887;19;20743;-62
2023/11/14 10:27:35;;;;;;;0.10;0.10;;;;;;;15.24;71.86;99327.22;7363101;19;20010;-62
2023/11/14 10:30:01;;;;;;;0.10;0.10;;;;;;;15.30;70.38;99326.81;7357266;19;20014;-62
2023/11/14 10:32:27;;;;;;;0.10;0.10;;;;;;;15.43;70.21;99336.56;7362459;19;20018;-62
2023/11/14 10:34:52;;;;;;;0.00;0.00;;;;;;;15.50;69.09;99324.69;7363262;19;20046;-62
2023/11/14 10:37:33;;;;;;;0.10;0.10;;;;;;;15.78;70.80;99340.41;7352456;19;20632;-62
2023/11/14 10:40:03;;;;;;;0.10;0.10;;;;;;;15.87;69.36;99338.13;7361586;19;20354;-62
2023/11/14 10:42:33;;;;;;;0.10;0.10;;;;;;;16.06;69.84;99352.56;7356801;19;20018;-62
2023/11/14 10:44:59;;;;;;;0.10;0.10;;;;;;;16.21;69.73;99363.88;7362342;19;20691;-62
2023/11/14 10:47:39;;;;;;;0.10;0.10;;;;;;;16.43;69.45;99370.34;7362916;19;20010;-62
2023/11/14 10:50:06;;;;;;;0.10;0.10;;;;;;;16.50;68.46;99361.91;7360340;19;20003;-62
2023/11/14 10:52:36;;;;;;;0.10;0.10;;;;;;;16.65;68.46;99346.00;7364676;19;20335;-62
2023/11/14 10:55:05;;;;;;;0.20;0.20;;;;;;;16.65;66.80;99362.66;7366566;19;20040;-62
2023/11/14 10:57:31;;;;;;;0.10;0.10;;;;;;;16.66;67.65;99358.22;7362655;19;20689;-62
2023/11/14 10:59:58;;;;;;;0.10;0.10;;;;;;;16.80;66.37;99361.63;7363863;19;20018;-62
2023/11/14 11:02:32;;;;;;;0.10;0.10;;;;;;;16.89;66.67;99356.66;7362487;19;20106;-62
2023/11/14 11:05:01;;;;;;;0.10;0.10;;;;;;;16.99;66.29;99370.88;7362390;19;20019;-62
2023/11/14 11:07:28;;;;;;;0.10;0.10;;;;;;;16.98;65.64;99375.31;7362474;19;20018;-62
2023/11/14 11:09:53;;;;;;;0.20;0.20;;;;;;;17.02;64.83;99381.19;7360224;19;20736;-62
2023/11/14 11:12:20;;;;;;;0.10;0.10;;;;;;;17.03;65.92;99377.59;7360868;19;20011;-62
2023/11/14 11:14:45;;;;;;;0.10;0.10;;;;;;;17.03;64.83;99378.47;7363838;19;20017;-62
2023/11/14 11:17:11;;;;;;;0.10;0.10;;;;;;;17.11;65.08;99391.13;7358135;19;20034;-63
2023/11/14 11:19:37;;;;;;;0.10;0.10;;;;;;;17.10;65.31;99389.44;7357379;19;20728;-62
2023/11/14 11:22:06;;;;;;;0.10;0.10;;;;;;;17.20;65.15;99389.63;7362414;19;20010;-62
2023/11/14 11:24:32;;;;;;;0.10;0.10;;;;;;;17.33;65.61;99391.25;7352409;19;20028;-62
2023/11/14 11:27:10;;;;;;;0.10;0.10;;;;;;;17.51;66.01;99393.53;7365314;19;20007;-62
2023/11/14 11:29:45;;;;;;;0.10;0.10;;;;;;;17.66;65.83;99397.72;7362203;19;20010;-62